createdAt,value
2018-07-02T00:02:12.156Z,68.00
2018-07-02T00:04:46.483Z,67.80
2018-07-02T00:07:23.236Z,68.30
2018-07-02T00:09:57.623Z,68.80
2018-07-02T00:12:31.980Z,69.00
2018-07-02T00:15:06.644Z,69.60
2018-07-02T00:17:40.908Z,69.70
2018-07-02T00:20:15.134Z,70.10
2018-07-02T00:22:49.484Z,70.40
2018-07-02T00:25:23.753Z,71.10
2018-07-02T00:27:58.118Z,71.80
2018-07-02T00:30:32.399Z,71.70
2018-07-02T00:33:06.643Z,71.50
2018-07-02T00:35:40.971Z,71.60
2018-07-02T00:38:15.458Z,71.50
2018-07-02T00:40:49.716Z,71.70
2018-07-02T00:43:23.942Z,72.20
2018-07-02T00:45:58.359Z,72.70
2018-07-02T00:48:32.600Z,73.00
2018-07-02T00:51:07.035Z,73.10
2018-07-02T00:53:41.306Z,73.40
2018-07-02T00:58:49.900Z,74.90
2018-07-02T01:01:26.468Z,75.10
2018-07-02T01:04:01.569Z,74.90
2018-07-02T01:06:36.062Z,75.70
2018-07-02T01:09:10.833Z,76.60
2018-07-02T01:11:45.181Z,76.40
2018-07-02T01:14:19.575Z,76.60
2018-07-02T01:16:53.930Z,76.10
2018-07-02T01:19:28.310Z,77.20
2018-07-02T01:22:02.795Z,77.30
2018-07-02T01:27:11.161Z,77.20
2018-07-02T01:29:45.437Z,77.90
2018-07-02T01:32:19.958Z,78.80
2018-07-02T01:34:54.266Z,78.20
2018-07-02T01:37:28.579Z,78.00
2018-07-02T01:40:03.126Z,78.20
2018-07-02T01:42:37.594Z,78.00
2018-07-02T01:47:45.931Z,78.30
2018-07-02T01:50:20.105Z,78.50
2018-07-02T01:52:54.453Z,78.40
2018-07-02T01:55:28.954Z,78.60
2018-07-02T02:05:46.015Z,79.50
2018-07-02T02:08:20.644Z,79.70
2018-07-02T02:10:55.462Z,79.90
2018-07-02T02:13:29.972Z,81.50
2018-07-02T02:16:04.439Z,82.80
2018-07-02T02:18:38.789Z,84.30
2018-07-02T02:21:13.276Z,85.20
2018-07-02T02:26:21.656Z,86.70
2018-07-02T02:28:56.001Z,86.30
2018-07-02T02:34:04.556Z,86.80
2018-07-02T02:36:39.041Z,87.20
2018-07-02T02:39:13.533Z,86.80
2018-07-02T02:41:47.982Z,86.80
2018-07-02T02:44:22.411Z,86.70
2018-07-02T02:46:56.743Z,86.20
2018-07-02T02:49:31.217Z,86.90
2018-07-02T02:52:05.752Z,87.50
2018-07-02T02:54:40.115Z,87.40
2018-07-02T02:57:14.711Z,89.40
2018-07-02T02:59:49.139Z,90.70
2018-07-02T03:02:23.418Z,90.90
2018-07-02T03:04:57.953Z,91.10
2018-07-02T03:07:32.365Z,91.30
2018-07-02T03:10:06.842Z,91.70
2018-07-02T03:12:41.229Z,91.90
2018-07-02T03:15:15.541Z,92.30
2018-07-02T03:20:23.916Z,93.50
2018-07-02T03:22:58.173Z,94.00
2018-07-02T03:25:32.509Z,94.80
2018-07-02T03:28:06.923Z,95.70
2018-07-02T03:30:41.251Z,96.50
2018-07-02T03:35:49.675Z,97.70
2018-07-02T03:38:23.994Z,98.80
2018-07-02T03:40:58.315Z,99.10
2018-07-02T03:43:32.720Z,99.50
2018-07-02T03:46:07.106Z,99.90
2018-07-02T03:48:41.502Z,99.90
2018-07-02T03:58:58.533Z,99.90
2018-07-02T04:09:15.149Z,99.80
2018-07-02T04:11:49.433Z,99.70
2018-07-02T04:14:23.802Z,99.70
2018-07-02T04:16:58.097Z,99.90
2018-07-02T04:19:32.366Z,99.90
2018-07-02T04:22:06.591Z,99.90
2018-07-02T04:27:15.026Z,99.90
2018-07-02T04:29:49.383Z,99.90
2018-07-02T04:32:23.640Z,99.90
2018-07-02T04:34:58.000Z,99.90
2018-07-02T04:37:32.342Z,99.90
2018-07-02T04:40:06.684Z,99.90
2018-07-02T04:42:40.938Z,99.10
2018-07-02T04:45:15.233Z,98.10
2018-07-02T04:47:50.003Z,97.60
2018-07-02T04:50:24.217Z,97.20
2018-07-02T04:52:58.665Z,96.80
2018-07-02T04:58:07.166Z,95.60
2018-07-02T05:00:41.388Z,95.50
2018-07-02T05:03:15.817Z,95.50
2018-07-02T05:05:50.209Z,95.60
2018-07-02T05:10:59.353Z,95.60
2018-07-02T05:13:33.591Z,95.40
2018-07-02T05:16:07.915Z,95.40
2018-07-02T05:18:42.179Z,95.40
2018-07-02T05:21:16.523Z,95.40
2018-07-02T05:23:50.738Z,94.80
2018-07-02T05:26:25.231Z,94.40
2018-07-02T05:28:59.488Z,94.70
2018-07-02T05:31:33.834Z,95.10
2018-07-02T05:34:08.186Z,94.60
2018-07-02T05:36:42.550Z,94.80
2018-07-02T05:39:16.787Z,94.60
2018-07-02T05:41:51.154Z,94.50
2018-07-02T05:44:25.625Z,94.50
2018-07-02T05:47:00.023Z,94.30
2018-07-02T05:49:34.425Z,94.10
2018-07-02T05:52:08.799Z,94.00
2018-07-02T05:54:43.195Z,94.00
2018-07-02T05:57:17.497Z,94.50
2018-07-02T05:59:51.860Z,95.10
2018-07-02T06:02:26.256Z,94.20
2018-07-02T06:05:00.580Z,93.60
2018-07-02T06:07:34.906Z,93.80
2018-07-02T06:12:43.581Z,93.10
2018-07-02T06:15:18.092Z,93.10
2018-07-02T06:17:52.609Z,92.80
2018-07-02T06:20:27.102Z,92.60
2018-07-02T06:23:01.530Z,92.60
2018-07-02T06:25:35.849Z,94.00
2018-07-02T06:28:10.251Z,93.30
2018-07-02T06:30:44.582Z,93.00
2018-07-02T06:33:19.004Z,92.80
2018-07-02T06:35:53.518Z,93.10
2018-07-02T06:41:02.298Z,92.30
2018-07-02T06:46:11.323Z,92.50
2018-07-02T06:48:45.689Z,92.70
2018-07-02T06:51:20.160Z,92.10
2018-07-02T06:53:54.459Z,93.00
2018-07-02T06:56:28.968Z,93.20
2018-07-02T07:01:37.383Z,93.10
2018-07-02T07:04:11.765Z,92.50
2018-07-02T07:06:46.108Z,93.50
2018-07-02T07:11:54.606Z,94.10
2018-07-02T07:14:28.950Z,94.10
2018-07-02T07:17:03.231Z,93.90
2018-07-02T07:19:37.664Z,93.30
2018-07-02T07:22:11.979Z,93.30
2018-07-02T07:24:46.397Z,92.60
2018-07-02T07:27:20.738Z,93.20
2018-07-02T07:29:55.062Z,92.40
2018-07-02T07:32:29.666Z,92.60
2018-07-02T07:35:04.084Z,93.90
2018-07-02T07:37:38.508Z,92.60
2018-07-02T07:40:12.803Z,92.00
2018-07-02T07:42:47.122Z,92.00
2018-07-02T07:45:21.681Z,92.30
2018-07-02T07:50:30.310Z,90.90
2018-07-02T07:53:04.643Z,90.90
2018-07-02T07:55:38.968Z,90.80
2018-07-02T07:58:13.368Z,88.80
2018-07-02T08:00:47.597Z,90.30
2018-07-02T08:03:21.970Z,90.90
2018-07-02T08:05:56.417Z,88.70
2018-07-02T08:11:04.842Z,88.30
2018-07-02T08:16:13.246Z,87.90
2018-07-02T08:21:21.580Z,85.40
2018-07-02T08:23:55.933Z,84.40
2018-07-02T08:26:30.234Z,84.00
2018-07-02T08:29:04.713Z,83.80
2018-07-02T08:31:39.029Z,82.70
2018-07-02T08:34:13.399Z,80.50
2018-07-02T08:36:47.724Z,83.50
2018-07-02T08:39:21.978Z,82.60
2018-07-02T08:41:56.368Z,77.50
2018-07-02T08:44:30.678Z,76.80
2018-07-02T08:47:04.980Z,79.60
2018-07-02T08:49:39.232Z,78.70
2018-07-02T08:52:13.515Z,76.30
2018-07-02T08:54:47.971Z,76.10
2018-07-02T08:59:56.561Z,73.90
2018-07-02T09:02:30.885Z,73.80
2018-07-02T09:05:05.283Z,73.10
2018-07-02T09:10:13.672Z,75.60
2018-07-02T09:15:22.108Z,74.60
2018-07-02T09:17:56.458Z,74.10
2018-07-02T09:20:31.039Z,76.10
2018-07-02T09:23:05.445Z,79.20
2018-07-02T09:28:14.040Z,72.10
2018-07-02T09:30:48.716Z,74.20
2018-07-02T09:33:22.929Z,74.90
2018-07-02T09:35:57.366Z,72.40
2018-07-02T09:38:31.858Z,82.40
2018-07-02T09:41:06.184Z,77.60
2018-07-02T09:43:40.465Z,73.30
2018-07-02T09:48:49.007Z,71.60
2018-07-02T09:51:23.418Z,72.60
2018-07-02T09:56:32.873Z,71.00
2018-07-02T09:59:07.341Z,71.90
2018-07-02T10:01:41.661Z,72.30
2018-07-02T10:04:15.906Z,72.90
2018-07-02T10:06:50.095Z,70.50
2018-07-02T10:09:24.386Z,76.40
2018-07-02T10:11:58.857Z,73.90
2018-07-02T10:14:33.135Z,71.80
2018-07-02T10:17:07.522Z,70.80
2018-07-02T10:19:41.797Z,72.60
2018-07-02T10:22:16.392Z,71.50
2018-07-02T10:24:50.780Z,72.20
2018-07-02T10:35:07.847Z,70.70
2018-07-02T10:37:42.388Z,72.40
2018-07-02T10:40:16.830Z,68.60
2018-07-02T10:42:51.303Z,68.90
2018-07-02T10:45:25.652Z,68.30
2018-07-02T10:48:00.067Z,70.30
2018-07-02T10:50:34.445Z,68.60
2018-07-02T10:53:08.975Z,66.60
2018-07-02T10:58:17.305Z,66.90
2018-07-02T11:00:51.732Z,67.50
2018-07-02T11:03:26.204Z,64.90
2018-07-02T11:06:00.498Z,65.20
2018-07-02T11:11:08.890Z,69.10
2018-07-02T11:13:43.169Z,68.10
2018-07-02T11:16:17.516Z,65.40
2018-07-02T11:18:51.963Z,64.40
2018-07-02T11:21:26.310Z,64.20
2018-07-02T11:24:00.792Z,64.30
2018-07-02T11:26:35.160Z,66.70
2018-07-02T11:29:09.485Z,65.10
2018-07-02T11:31:43.858Z,66.70
2018-07-02T11:34:18.389Z,64.30
2018-07-02T11:36:52.735Z,64.60
2018-07-02T11:39:27.146Z,67.40
2018-07-02T11:42:01.436Z,68.40
2018-07-02T11:44:35.852Z,64.60
2018-07-02T11:47:10.303Z,66.40
2018-07-02T11:49:44.835Z,65.00
2018-07-02T11:52:19.377Z,65.50
2018-07-02T11:54:53.760Z,65.20
2018-07-02T11:57:28.587Z,63.30
2018-07-02T12:00:02.891Z,63.20
2018-07-02T12:02:37.622Z,63.30
2018-07-02T12:05:12.024Z,63.70
2018-07-02T12:10:20.542Z,67.00
2018-07-02T12:12:54.871Z,65.10
2018-07-02T12:15:29.307Z,66.00
2018-07-02T12:20:37.707Z,61.50
2018-07-02T12:23:11.990Z,63.60
2018-07-02T12:25:46.284Z,63.40
2018-07-02T12:28:20.663Z,60.90
2018-07-02T12:33:28.968Z,64.30
2018-07-02T12:36:03.115Z,59.90
2018-07-02T12:38:37.465Z,60.30
2018-07-02T12:41:11.719Z,59.10
2018-07-02T12:43:45.931Z,60.50
2018-07-02T12:46:20.261Z,59.40
2018-07-02T12:48:54.597Z,59.50
2018-07-02T12:51:29.168Z,58.80
2018-07-02T12:54:04.110Z,59.10
2018-07-02T12:56:39.016Z,61.80
2018-07-02T12:59:15.471Z,61.20
2018-07-02T13:01:49.855Z,61.00
2018-07-02T13:04:24.146Z,60.30
2018-07-02T13:06:58.578Z,59.10
2018-07-02T13:12:07.146Z,58.70
2018-07-02T13:17:15.611Z,59.10
2018-07-02T13:19:49.863Z,58.80
2018-07-02T13:22:24.296Z,59.20
2018-07-02T13:24:58.603Z,59.00
2018-07-02T13:27:33.283Z,60.10
2018-07-02T13:30:07.664Z,58.30
2018-07-02T13:35:15.963Z,59.60
2018-07-02T13:37:50.333Z,57.40
2018-07-02T13:40:24.691Z,59.40
2018-07-02T13:42:59.130Z,58.60
2018-07-02T13:45:33.384Z,60.00
2018-07-02T13:48:07.781Z,58.80
2018-07-02T13:50:42.116Z,58.80
2018-07-02T13:53:16.692Z,59.20
2018-07-02T13:55:51.085Z,57.80
2018-07-02T13:58:25.339Z,57.40
2018-07-02T14:00:59.568Z,58.40
2018-07-02T14:03:34.014Z,59.70
2018-07-02T14:06:08.460Z,57.90
2018-07-02T14:08:42.739Z,56.90
2018-07-02T14:11:17.274Z,56.60
2018-07-02T14:13:51.726Z,57.90
2018-07-02T14:16:26.123Z,58.50
2018-07-02T14:21:34.799Z,57.10
2018-07-02T14:26:43.343Z,56.00
2018-07-02T14:29:17.713Z,55.50
2018-07-02T14:31:51.975Z,58.40
2018-07-02T14:34:26.420Z,54.30
2018-07-02T14:39:43.877Z,54.30
2018-07-02T14:42:19.857Z,54.90
2018-07-02T14:44:55.466Z,56.60
2018-07-02T14:47:36.281Z,55.50
2018-07-02T14:50:12.847Z,55.10
2018-07-02T14:52:47.083Z,53.90
2018-07-02T14:55:21.434Z,53.40
2018-07-02T14:57:55.679Z,53.40
2018-07-02T15:00:30.008Z,54.50
2018-07-02T15:03:04.500Z,54.30
2018-07-02T15:05:38.835Z,52.40
2018-07-02T15:08:13.298Z,54.30
2018-07-02T15:10:47.748Z,53.70
2018-07-02T15:13:22.138Z,53.50
2018-07-02T15:15:56.551Z,53.50
2018-07-02T15:18:31.058Z,53.30
2018-07-02T15:21:05.506Z,54.00
2018-07-02T15:23:39.794Z,54.40
2018-07-02T15:26:14.134Z,55.60
2018-07-02T15:28:48.448Z,55.50
2018-07-02T15:31:22.835Z,54.30
2018-07-02T15:33:57.358Z,53.90
2018-07-02T15:36:31.904Z,52.90
2018-07-02T15:41:41.482Z,52.30
2018-07-02T15:44:15.862Z,52.40
2018-07-02T15:57:07.479Z,51.70
2018-07-02T15:59:41.856Z,52.10
2018-07-02T16:02:16.580Z,52.50
2018-07-02T16:04:50.935Z,52.90
2018-07-02T16:07:25.237Z,51.30
2018-07-02T16:09:59.429Z,50.70
2018-07-02T16:12:33.858Z,50.10
2018-07-02T16:15:08.121Z,51.20
2018-07-02T16:17:42.458Z,51.60
2018-07-02T16:20:16.860Z,53.20
2018-07-02T16:22:51.351Z,51.00
2018-07-02T16:25:26.030Z,51.20
2018-07-02T16:28:00.607Z,49.00
2018-07-02T16:30:35.125Z,49.90
2018-07-02T16:33:10.007Z,47.40
2018-07-02T16:35:44.775Z,47.90
2018-07-02T16:38:19.480Z,47.60
2018-07-02T16:40:54.160Z,44.70
2018-07-02T16:43:28.966Z,43.10
2018-07-02T16:46:03.566Z,42.80
2018-07-02T16:48:38.118Z,41.90
2018-07-02T16:51:12.494Z,42.80
2018-07-02T16:53:47.090Z,43.00
2018-07-02T16:56:21.805Z,43.60
2018-07-02T16:58:56.511Z,40.30
2018-07-02T17:01:31.076Z,40.40
2018-07-02T17:04:06.029Z,40.00
2018-07-02T17:06:40.701Z,39.60
2018-07-02T17:09:15.510Z,38.40
2018-07-02T17:11:50.101Z,38.40
2018-07-02T17:14:24.805Z,40.60
2018-07-02T17:16:59.631Z,39.70
2018-07-02T17:19:34.094Z,39.40
2018-07-02T17:22:08.391Z,37.50
2018-07-02T17:24:42.775Z,38.50
2018-07-02T17:27:17.263Z,39.20
2018-07-02T17:29:51.709Z,40.50
2018-07-02T17:35:00.489Z,40.40
2018-07-02T17:37:34.961Z,41.30
2018-07-02T17:40:09.395Z,41.20
2018-07-02T17:42:43.863Z,39.90
2018-07-02T17:45:18.167Z,39.20
2018-07-02T17:47:52.663Z,38.80
2018-07-02T17:50:27.015Z,38.80
2018-07-02T17:53:01.286Z,39.00
2018-07-02T17:55:35.625Z,38.90
2018-07-02T17:58:10.108Z,39.10
2018-07-02T18:00:44.586Z,39.70
2018-07-02T18:05:53.259Z,40.90
2018-07-02T18:08:27.522Z,41.50
2018-07-02T18:11:01.961Z,42.70
2018-07-02T18:13:36.496Z,43.80
2018-07-02T18:16:10.818Z,45.00
2018-07-02T18:23:53.592Z,46.30
2018-07-02T18:26:28.091Z,46.40
2018-07-02T18:31:36.728Z,47.30
2018-07-02T18:34:11.293Z,47.40
2018-07-02T18:36:46.583Z,47.80
2018-07-02T18:39:21.243Z,49.10
2018-07-02T18:41:55.570Z,49.10
2018-07-02T18:44:29.886Z,50.30
2018-07-02T18:47:04.233Z,49.50
2018-07-02T18:49:38.636Z,49.80
2018-07-02T18:52:12.932Z,50.00
2018-07-02T18:54:47.226Z,50.40
2018-07-02T18:57:21.731Z,51.00
2018-07-02T18:59:55.999Z,50.80
2018-07-02T19:02:30.461Z,51.00
2018-07-02T19:05:05.393Z,50.90
2018-07-02T19:07:39.802Z,51.00
2018-07-02T19:10:14.030Z,50.80
2018-07-02T19:12:48.347Z,50.00
2018-07-02T19:15:22.666Z,50.40
2018-07-02T19:17:57.059Z,50.50
2018-07-02T19:23:06.013Z,50.30
2018-07-02T19:25:40.448Z,50.70
2018-07-02T19:33:23.105Z,52.10
2018-07-02T19:35:57.342Z,52.30
2018-07-02T19:38:31.603Z,52.00
2018-07-02T19:41:06.343Z,52.10
2018-07-02T19:43:40.548Z,51.90
2018-07-02T19:46:14.842Z,52.50
2018-07-02T19:48:49.219Z,53.30
2018-07-02T19:56:31.767Z,52.80
2018-07-02T19:59:06.095Z,53.30
2018-07-02T20:01:40.703Z,53.80
2018-07-02T20:04:15.122Z,53.80
2018-07-02T20:09:24.459Z,54.10
2018-07-02T20:11:58.762Z,54.00
2018-07-02T20:17:07.214Z,54.30
2018-07-02T20:19:41.769Z,55.50
2018-07-02T20:22:16.360Z,55.50
2018-07-02T20:24:50.687Z,55.00
2018-07-02T20:29:59.382Z,55.30
2018-07-02T20:32:33.920Z,56.10
2018-07-02T20:35:08.428Z,56.20
2018-07-02T20:37:42.779Z,56.60
2018-07-02T20:40:17.196Z,56.20
2018-07-02T20:42:51.629Z,56.20
2018-07-02T20:45:26.272Z,56.60
2018-07-02T20:53:08.782Z,57.20
2018-07-02T20:58:17.373Z,57.60
2018-07-02T21:00:51.673Z,57.60
2018-07-02T21:03:25.998Z,59.00
2018-07-02T21:06:00.485Z,60.20
2018-07-02T21:11:09.037Z,62.60
2018-07-02T21:13:43.667Z,63.60
2018-07-02T21:16:18.490Z,64.60
2018-07-02T21:18:53.372Z,64.70
2018-07-02T21:21:28.011Z,65.20
2018-07-02T21:24:02.498Z,66.10
2018-07-02T21:29:10.880Z,66.50
2018-07-02T21:31:45.297Z,67.10
2018-07-02T21:34:19.712Z,67.40
2018-07-02T21:36:54.063Z,68.60
2018-07-02T21:39:28.498Z,68.30
2018-07-02T21:42:02.934Z,68.50
2018-07-02T21:49:45.836Z,71.60
2018-07-02T21:52:20.672Z,73.10
2018-07-02T21:54:55.011Z,73.20
2018-07-02T21:57:29.438Z,73.00
2018-07-02T22:00:05.252Z,72.40
2018-07-02T22:05:13.692Z,73.40
2018-07-02T22:10:22.168Z,73.10
2018-07-02T22:12:56.600Z,72.50
2018-07-02T22:15:30.879Z,73.40
2018-07-02T22:18:05.246Z,73.70
2018-07-02T22:20:39.629Z,73.30
2018-07-02T22:23:28.743Z,75.00
2018-07-02T22:28:38.084Z,77.00
2018-07-02T22:31:12.479Z,76.90
2018-07-02T22:33:46.695Z,77.20
2018-07-02T22:36:21.058Z,77.00
2018-07-02T22:39:08.810Z,78.30
2018-07-02T22:41:43.311Z,77.90
2018-07-02T22:44:18.007Z,78.50
2018-07-02T22:46:52.315Z,78.70
2018-07-02T22:49:26.592Z,78.80
2018-07-02T22:57:09.142Z,79.00
2018-07-02T22:59:43.507Z,79.60
2018-07-02T23:02:17.789Z,79.70
2018-07-02T23:04:52.189Z,79.40
2018-07-02T23:10:00.750Z,81.30
2018-07-02T23:12:35.126Z,81.40
2018-07-02T23:15:09.651Z,81.60
2018-07-02T23:17:44.019Z,81.60
2018-07-02T23:20:18.382Z,82.10
2018-07-02T23:23:01.615Z,82.70
2018-07-02T23:25:35.929Z,82.70
2018-07-02T23:28:10.426Z,83.30
2018-07-02T23:30:44.740Z,82.80
2018-07-02T23:33:19.121Z,83.40
2018-07-02T23:38:27.625Z,83.20
2018-07-02T23:41:01.897Z,83.90
2018-07-02T23:43:36.422Z,84.40
2018-07-02T23:46:10.853Z,84.20
2018-07-02T23:51:19.798Z,84.60
2018-07-02T23:53:54.475Z,85.90
2018-07-02T23:56:28.924Z,87.20
2018-07-02T23:59:03.427Z,87.60
